createdAt,value
2019-02-17T00:00:06.599Z,1013.18
2019-02-17T00:01:05.247Z,1013.11
2019-02-17T00:02:03.955Z,1013.13
2019-02-17T00:03:02.487Z,1013.12
2019-02-17T00:04:01.254Z,1013.13
2019-02-17T00:04:59.896Z,1013.14
2019-02-17T00:05:58.488Z,1013.09
2019-02-17T00:06:57.015Z,1013.15
2019-02-17T00:07:55.580Z,1013.16
2019-02-17T00:08:54.119Z,1013.14
2019-02-17T00:09:52.759Z,1013.11
2019-02-17T00:10:51.481Z,1013.14
2019-02-17T00:11:50.194Z,1013.13
2019-02-17T00:12:48.833Z,1013.13
2019-02-17T00:13:47.405Z,1013.13
2019-02-17T00:14:45.982Z,1013.1
2019-02-17T00:15:44.551Z,1013.09
2019-02-17T00:16:43.167Z,1013.06
2019-02-17T00:17:41.791Z,1013.06
2019-02-17T00:18:40.410Z,1013.05
2019-02-17T00:19:38.990Z,1013.06
2019-02-17T00:20:37.607Z,1013.04
2019-02-17T00:21:36.206Z,1013.06
2019-02-17T00:22:34.737Z,1013.03
2019-02-17T00:23:33.554Z,1013.01
2019-02-17T00:24:32.107Z,1012.99
2019-02-17T00:25:30.657Z,1013
2019-02-17T00:26:29.205Z,1012.95
2019-02-17T00:27:27.762Z,1012.97
2019-02-17T00:28:26.304Z,1012.95
2019-02-17T00:29:24.935Z,1013.02
2019-02-17T00:30:23.650Z,1013
2019-02-17T00:31:22.183Z,1013.04
2019-02-17T00:32:20.763Z,1012.98
2019-02-17T00:33:19.651Z,1012.98
2019-02-17T00:34:18.207Z,1012.97
2019-02-17T00:35:16.782Z,1012.97
2019-02-17T00:36:15.338Z,1012.97
2019-02-17T00:37:13.900Z,1013.01
2019-02-17T00:38:12.466Z,1013
2019-02-17T00:39:11.018Z,1013.02
2019-02-17T00:40:09.603Z,1013.03
2019-02-17T00:41:08.151Z,1013.03
2019-02-17T00:42:06.761Z,1013.04
2019-02-17T00:43:05.463Z,1013.03
2019-02-17T00:44:04.144Z,1013.1
2019-02-17T00:45:02.718Z,1013.04
2019-02-17T00:46:01.401Z,1013.07
2019-02-17T00:46:59.947Z,1013.05
2019-02-17T00:47:58.526Z,1013.05
2019-02-17T00:48:57.045Z,1013.07
2019-02-17T00:49:55.693Z,1013.04
2019-02-17T00:50:54.224Z,1013.05
2019-02-17T00:51:52.835Z,1013.01
2019-02-17T00:52:51.503Z,1013.01
2019-02-17T00:53:50.578Z,1013.01
2019-02-17T00:54:49.109Z,1013.02
2019-02-17T00:55:47.721Z,1012.97
2019-02-17T00:56:46.293Z,1012.99
2019-02-17T00:57:44.894Z,1012.98
2019-02-17T00:58:43.615Z,1012.99
2019-02-17T00:59:42.244Z,1012.98
2019-02-17T01:00:41.100Z,1012.98
2019-02-17T01:01:39.848Z,1012.95
2019-02-17T01:02:38.385Z,1013
2019-02-17T01:03:36.926Z,1012.94
2019-02-17T01:04:35.462Z,1012.96
2019-02-17T01:05:34.048Z,1012.95
2019-02-17T01:06:32.546Z,1012.93
2019-02-17T01:07:31.137Z,1012.96
2019-02-17T01:08:29.941Z,1012.99
2019-02-17T01:09:28.427Z,1012.95
2019-02-17T01:10:27.040Z,1012.98
2019-02-17T01:11:25.685Z,1012.97
2019-02-17T01:12:24.222Z,1012.96
2019-02-17T01:13:22.796Z,1013
2019-02-17T01:14:21.414Z,1012.97
2019-02-17T01:15:19.963Z,1012.99
2019-02-17T01:16:18.500Z,1012.99
2019-02-17T01:17:17.043Z,1013.01
2019-02-17T01:18:15.670Z,1012.94
2019-02-17T01:19:14.222Z,1012.99
2019-02-17T01:20:12.759Z,1012.99
2019-02-17T01:21:11.535Z,1012.94
2019-02-17T01:22:10.103Z,1012.98
2019-02-17T01:23:08.655Z,1012.99
2019-02-17T01:24:07.255Z,1012.97
2019-02-17T01:25:05.875Z,1013
2019-02-17T01:26:04.427Z,1012.93
2019-02-17T01:27:03.147Z,1012.96
2019-02-17T01:28:01.682Z,1012.94
2019-02-17T01:29:00.257Z,1012.97
2019-02-17T01:29:59.154Z,1012.97
2019-02-17T01:30:57.762Z,1012.96
2019-02-17T01:31:56.352Z,1012.98
2019-02-17T01:32:54.954Z,1012.97
2019-02-17T01:33:53.733Z,1012.93
2019-02-17T01:34:52.334Z,1012.97
2019-02-17T01:35:50.924Z,1012.94
2019-02-17T01:36:49.531Z,1012.97
2019-02-17T01:37:48.093Z,1012.91
2019-02-17T01:38:46.795Z,1012.93
2019-02-17T01:39:45.403Z,1012.94
2019-02-17T01:40:44.035Z,1012.97
2019-02-17T01:41:42.569Z,1012.97
2019-02-17T01:42:41.303Z,1012.92
2019-02-17T01:43:39.844Z,1012.93
2019-02-17T01:44:38.410Z,1012.91
2019-02-17T01:45:36.951Z,1012.9
2019-02-17T01:46:35.527Z,1012.91
2019-02-17T01:47:34.052Z,1012.88
2019-02-17T01:48:32.595Z,1012.89
2019-02-17T01:49:31.142Z,1012.85
2019-02-17T01:50:29.785Z,1012.89
2019-02-17T01:51:28.363Z,1012.89
2019-02-17T01:52:26.999Z,1012.82
2019-02-17T01:53:25.604Z,1012.82
2019-02-17T01:54:24.291Z,1012.82
2019-02-17T01:55:22.835Z,1012.81
2019-02-17T01:56:21.583Z,1012.8
2019-02-17T01:57:20.147Z,1012.82
2019-02-17T01:58:18.683Z,1012.78
2019-02-17T01:59:17.335Z,1012.79
2019-02-17T02:00:15.982Z,1012.74
2019-02-17T02:01:14.508Z,1012.71
2019-02-17T02:02:13.228Z,1012.72
2019-02-17T02:03:11.796Z,1012.73
2019-02-17T02:04:10.343Z,1012.73
2019-02-17T02:05:08.898Z,1012.71
2019-02-17T02:06:07.719Z,1012.72
2019-02-17T02:07:06.288Z,1012.65
2019-02-17T02:08:04.864Z,1012.63
2019-02-17T02:09:03.450Z,1012.66
2019-02-17T02:10:02.018Z,1012.66
2019-02-17T02:11:00.550Z,1012.63
2019-02-17T02:11:59.156Z,1012.71
2019-02-17T02:12:57.955Z,1012.68
2019-02-17T02:13:56.485Z,1012.67
2019-02-17T02:14:55.076Z,1012.64
2019-02-17T02:15:53.732Z,1012.67
2019-02-17T02:16:52.276Z,1012.64
2019-02-17T02:17:50.817Z,1012.65
2019-02-17T02:18:49.434Z,1012.67
2019-02-17T02:19:47.970Z,1012.67
2019-02-17T02:20:46.525Z,1012.66
2019-02-17T02:21:45.109Z,1012.67
2019-02-17T02:22:43.671Z,1012.7
2019-02-17T02:23:42.263Z,1012.68
2019-02-17T02:24:40.822Z,1012.68
2019-02-17T02:25:39.411Z,1012.69
2019-02-17T02:26:38.110Z,1012.7
2019-02-17T02:27:36.690Z,1012.67
2019-02-17T02:28:35.528Z,1012.63
2019-02-17T02:29:40.664Z,1012.66
2019-02-17T02:30:32.734Z,1012.66
2019-02-17T02:31:31.766Z,1012.65
2019-02-17T02:32:30.279Z,1012.67
2019-02-17T02:33:28.854Z,1012.64
2019-02-17T02:34:27.679Z,1012.65
2019-02-17T02:35:26.721Z,1012.63
2019-02-17T02:36:25.325Z,1012.67
2019-02-17T02:37:24.044Z,1012.64
2019-02-17T02:38:22.608Z,1012.66
2019-02-17T02:39:21.239Z,1012.65
2019-02-17T02:40:19.857Z,1012.64
2019-02-17T02:41:18.450Z,1012.68
2019-02-17T02:42:16.970Z,1012.69
2019-02-17T02:43:15.545Z,1012.6
2019-02-17T02:44:14.097Z,1012.6
2019-02-17T02:45:12.652Z,1012.63
2019-02-17T02:46:11.449Z,1012.61
2019-02-17T02:47:10.244Z,1012.63
2019-02-17T02:48:08.773Z,1012.65
2019-02-17T02:49:07.490Z,1012.65
2019-02-17T02:50:06.084Z,1012.64
2019-02-17T02:51:04.708Z,1012.64
2019-02-17T02:52:03.201Z,1012.67
2019-02-17T02:53:01.860Z,1012.72
2019-02-17T02:54:00.430Z,1012.72
2019-02-17T02:54:59.081Z,1012.73
2019-02-17T02:55:57.871Z,1012.73
2019-02-17T02:56:56.392Z,1012.77
2019-02-17T02:57:55.063Z,1012.73
2019-02-17T02:58:53.667Z,1012.73
2019-02-17T02:59:52.810Z,1012.77
2019-02-17T03:00:50.805Z,1012.69
2019-02-17T03:01:49.569Z,1012.73
2019-02-17T03:02:48.116Z,1012.74
2019-02-17T03:03:46.684Z,1012.74
2019-02-17T03:04:45.345Z,1012.73
2019-02-17T03:05:43.991Z,1012.72
2019-02-17T03:06:42.543Z,1012.7
2019-02-17T03:07:41.269Z,1012.71
2019-02-17T03:08:39.981Z,1012.66
2019-02-17T03:09:38.555Z,1012.69
2019-02-17T03:10:37.198Z,1012.69
2019-02-17T03:11:35.941Z,1012.72
2019-02-17T03:12:34.495Z,1012.66
2019-02-17T03:13:33.225Z,1012.69
2019-02-17T03:14:31.799Z,1012.67
2019-02-17T03:15:30.357Z,1012.66
2019-02-17T03:16:28.915Z,1012.7
2019-02-17T03:17:27.588Z,1012.65
2019-02-17T03:18:26.118Z,1012.68
2019-02-17T03:19:24.668Z,1012.63
2019-02-17T03:20:23.222Z,1012.64
2019-02-17T03:22:57.267Z,1012.67
2019-02-17T03:23:55.854Z,1012.68
2019-02-17T03:24:54.401Z,1012.66
2019-02-17T03:25:53.306Z,1012.66
2019-02-17T03:26:52.001Z,1012.65
2019-02-17T03:27:50.534Z,1012.61
2019-02-17T03:28:49.126Z,1012.57
2019-02-17T03:29:47.738Z,1012.65
2019-02-17T03:30:46.289Z,1012.6
2019-02-17T03:31:44.853Z,1012.6
2019-02-17T03:32:43.393Z,1012.6
2019-02-17T03:33:42.038Z,1012.6
2019-02-17T03:34:40.698Z,1012.58
2019-02-17T03:35:39.343Z,1012.62
2019-02-17T03:36:38.036Z,1012.61
2019-02-17T03:37:36.668Z,1012.63
2019-02-17T03:38:35.238Z,1012.62
2019-02-17T03:39:33.856Z,1012.56
2019-02-17T03:40:32.424Z,1012.57
2019-02-17T03:41:31.002Z,1012.59
2019-02-17T03:42:29.538Z,1012.55
2019-02-17T03:43:28.058Z,1012.56
2019-02-17T03:44:26.607Z,1012.57
2019-02-17T03:45:25.442Z,1012.58
2019-02-17T03:46:24.123Z,1012.56
2019-02-17T03:47:22.658Z,1012.59
2019-02-17T03:48:21.437Z,1012.58
2019-02-17T03:49:19.989Z,1012.57
2019-02-17T03:50:18.553Z,1012.59
2019-02-17T03:51:17.094Z,1012.57
2019-02-17T03:52:15.616Z,1012.59
2019-02-17T03:53:14.206Z,1012.59
2019-02-17T03:54:12.739Z,1012.57
2019-02-17T03:55:11.333Z,1012.6
2019-02-17T03:56:09.913Z,1012.56
2019-02-17T03:57:08.468Z,1012.53
2019-02-17T03:58:07.236Z,1012.55
2019-02-17T03:59:05.997Z,1012.56
2019-02-17T04:00:15.964Z,1012.48
2019-02-17T04:01:03.154Z,1012.54
2019-02-17T04:02:01.729Z,1012.52
2019-02-17T04:03:00.277Z,1012.52
2019-02-17T04:03:58.923Z,1012.51
2019-02-17T04:04:57.491Z,1012.49
2019-02-17T04:05:56.123Z,1012.51
2019-02-17T04:06:54.669Z,1012.46
2019-02-17T04:07:53.516Z,1012.46
2019-02-17T04:08:52.121Z,1012.53
2019-02-17T04:09:50.652Z,1012.53
2019-02-17T04:10:49.304Z,1012.55
2019-02-17T04:11:47.991Z,1012.59
2019-02-17T04:12:46.586Z,1012.52
2019-02-17T04:13:45.200Z,1012.53
2019-02-17T04:14:43.947Z,1012.5
2019-02-17T04:15:42.502Z,1012.51
2019-02-17T04:16:41.443Z,1012.48
2019-02-17T04:17:40.047Z,1012.5
2019-02-17T04:18:38.846Z,1012.49
2019-02-17T04:19:37.484Z,1012.49
2019-02-17T04:20:36.073Z,1012.45
2019-02-17T04:21:34.757Z,1012.46
2019-02-17T04:22:33.495Z,1012.51
2019-02-17T04:23:32.071Z,1012.53
2019-02-17T04:24:30.599Z,1012.48
2019-02-17T04:25:29.271Z,1012.58
2019-02-17T04:26:27.999Z,1012.56
2019-02-17T04:27:26.634Z,1012.57
2019-02-17T04:28:25.184Z,1012.58
2019-02-17T04:29:23.950Z,1012.57
2019-02-17T04:30:29.106Z,1012.54
2019-02-17T04:31:21.118Z,1012.62
2019-02-17T04:32:20.240Z,1012.57
2019-02-17T04:33:18.772Z,1012.52
2019-02-17T04:34:17.549Z,1012.52
2019-02-17T04:35:16.100Z,1012.53
2019-02-17T04:36:14.663Z,1012.49
2019-02-17T04:37:13.193Z,1012.51
2019-02-17T04:38:11.806Z,1012.49
2019-02-17T04:39:10.378Z,1012.51
2019-02-17T04:40:08.894Z,1012.48
2019-02-17T04:41:07.465Z,1012.51
2019-02-17T04:42:06.038Z,1012.51
2019-02-17T04:43:04.607Z,1012.46
2019-02-17T04:44:03.583Z,1012.46
2019-02-17T04:45:02.118Z,1012.46
2019-02-17T04:46:00.626Z,1012.53
2019-02-17T04:46:59.460Z,1012.55
2019-02-17T04:47:57.991Z,1012.54
2019-02-17T04:48:56.556Z,1012.56
2019-02-17T04:49:55.129Z,1012.57
2019-02-17T04:50:53.800Z,1012.56
2019-02-17T04:51:52.381Z,1012.53
2019-02-17T04:52:50.954Z,1012.62
2019-02-17T04:53:49.577Z,1012.61
2019-02-17T04:54:48.297Z,1012.59
2019-02-17T04:55:46.922Z,1012.56
2019-02-17T04:56:45.550Z,1012.55
2019-02-17T04:57:44.127Z,1012.61
2019-02-17T04:58:42.709Z,1012.6
2019-02-17T04:59:41.248Z,1012.58
2019-02-17T05:00:40.678Z,1012.59
2019-02-17T05:01:38.446Z,1012.57
2019-02-17T05:02:36.982Z,1012.58
2019-02-17T05:03:35.737Z,1012.55
2019-02-17T05:04:34.245Z,1012.58
2019-02-17T05:05:32.795Z,1012.6
2019-02-17T05:06:31.674Z,1012.56
2019-02-17T05:07:30.336Z,1012.62
2019-02-17T05:08:28.908Z,1012.61
2019-02-17T05:09:27.506Z,1012.58
2019-02-17T05:10:26.154Z,1012.61
2019-02-17T05:11:24.698Z,1012.62
2019-02-17T05:12:23.272Z,1012.6
2019-02-17T05:13:21.932Z,1012.66
2019-02-17T05:14:20.440Z,1012.62
2019-02-17T05:15:19.021Z,1012.59
2019-02-17T05:16:17.754Z,1012.63
2019-02-17T05:17:16.301Z,1012.63
2019-02-17T05:18:14.881Z,1012.59
2019-02-17T05:19:13.482Z,1012.6
2019-02-17T05:20:12.230Z,1012.57
2019-02-17T05:21:11.898Z,1012.6
2019-02-17T05:22:10.510Z,1012.64
2019-02-17T05:23:09.248Z,1012.65
2019-02-17T05:24:07.915Z,1012.57
2019-02-17T05:25:06.440Z,1012.55
2019-02-17T05:26:05.016Z,1012.59
2019-02-17T05:27:03.604Z,1012.62
2019-02-17T05:28:02.167Z,1012.61
2019-02-17T05:29:01.040Z,1012.64
2019-02-17T05:29:59.712Z,1012.68
2019-02-17T05:30:58.349Z,1012.66
2019-02-17T05:31:56.878Z,1012.61
2019-02-17T05:32:56.309Z,1012.68
2019-02-17T05:33:54.889Z,1012.65
2019-02-17T05:34:53.601Z,1012.71
2019-02-17T05:35:52.194Z,1012.7
2019-02-17T05:36:50.748Z,1012.74
2019-02-17T05:37:49.430Z,1012.67
2019-02-17T05:38:48.169Z,1012.71
2019-02-17T05:39:46.744Z,1012.64
2019-02-17T05:40:45.546Z,1012.71
2019-02-17T05:41:44.206Z,1012.75
2019-02-17T05:42:42.764Z,1012.72
2019-02-17T05:43:41.336Z,1012.69
2019-02-17T05:44:39.856Z,1012.7
2019-02-17T05:45:38.387Z,1012.72
2019-02-17T05:46:37.015Z,1012.71
2019-02-17T05:47:35.854Z,1012.67
2019-02-17T05:48:34.427Z,1012.62
2019-02-17T05:49:32.986Z,1012.65
2019-02-17T05:50:31.886Z,1012.58
2019-02-17T05:51:30.487Z,1012.59
2019-02-17T05:52:29.082Z,1012.63
2019-02-17T05:53:27.649Z,1012.64
2019-02-17T05:54:26.179Z,1012.62
2019-02-17T05:55:24.732Z,1012.65
2019-02-17T05:56:23.254Z,1012.6
2019-02-17T05:57:21.974Z,1012.66
2019-02-17T05:58:20.521Z,1012.63
2019-02-17T05:59:19.147Z,1012.67
2019-02-17T06:00:17.961Z,1012.67
2019-02-17T06:01:16.506Z,1012.69
2019-02-17T06:02:15.149Z,1012.67
2019-02-17T06:03:13.665Z,1012.65
2019-02-17T06:04:12.492Z,1012.69
2019-02-17T06:05:11.083Z,1012.69
2019-02-17T06:06:09.646Z,1012.72
2019-02-17T06:07:08.291Z,1012.73
2019-02-17T06:08:06.884Z,1012.71
2019-02-17T06:09:05.605Z,1012.64
2019-02-17T06:10:04.290Z,1012.72
2019-02-17T06:11:02.838Z,1012.73
2019-02-17T06:12:01.868Z,1012.71
2019-02-17T06:13:00.235Z,1012.76
2019-02-17T06:13:58.819Z,1012.75
2019-02-17T06:14:57.819Z,1012.76
2019-02-17T06:15:56.348Z,1012.72
2019-02-17T06:16:54.923Z,1012.69
2019-02-17T06:17:53.524Z,1012.73
2019-02-17T06:18:52.216Z,1012.74
2019-02-17T06:19:50.855Z,1012.76
2019-02-17T06:20:49.887Z,1012.72
2019-02-17T06:21:48.501Z,1012.76
2019-02-17T06:22:47.400Z,1012.77
2019-02-17T06:23:46.672Z,1012.77
2019-02-17T06:24:45.380Z,1012.77
2019-02-17T06:25:44.065Z,1012.82
2019-02-17T06:26:42.654Z,1012.8
2019-02-17T06:27:41.336Z,1012.84
2019-02-17T06:28:39.931Z,1012.91
2019-02-17T06:29:38.534Z,1012.9
2019-02-17T06:30:37.560Z,1012.94
2019-02-17T06:31:36.234Z,1012.95
2019-02-17T06:32:34.878Z,1012.91
2019-02-17T06:33:33.590Z,1012.9
2019-02-17T06:34:32.627Z,1012.92
2019-02-17T06:35:30.869Z,1012.93
2019-02-17T06:36:29.664Z,1012.93
2019-02-17T06:37:28.306Z,1012.9
2019-02-17T06:38:27.086Z,1012.9
2019-02-17T06:39:26.408Z,1012.9
2019-02-17T06:40:25.607Z,1012.91
2019-02-17T06:41:24.234Z,1012.92
2019-02-17T06:42:23.074Z,1012.85
2019-02-17T06:43:21.627Z,1012.92
2019-02-17T06:44:20.365Z,1012.86
2019-02-17T06:45:19.713Z,1012.82
2019-02-17T06:46:17.809Z,1012.88
2019-02-17T06:47:16.528Z,1012.84
2019-02-17T06:48:15.381Z,1012.88
2019-02-17T06:49:14.143Z,1012.87
2019-02-17T06:50:12.643Z,1012.87
2019-02-17T06:51:11.303Z,1012.94
2019-02-17T06:52:10.069Z,1012.89
2019-02-17T06:53:08.644Z,1012.9
2019-02-17T06:54:07.199Z,1012.96
2019-02-17T06:55:05.801Z,1012.96
2019-02-17T06:56:04.417Z,1012.98
2019-02-17T06:57:02.976Z,1012.98
2019-02-17T06:58:01.711Z,1012.97
2019-02-17T06:59:00.252Z,1013
2019-02-17T06:59:58.817Z,1012.94
2019-02-17T07:00:57.453Z,1012.92
2019-02-17T07:01:56.148Z,1012.99
2019-02-17T07:02:54.731Z,1012.94
2019-02-17T07:03:53.428Z,1012.97
2019-02-17T07:04:52.012Z,1012.95
2019-02-17T07:05:50.561Z,1012.95
2019-02-17T07:06:49.173Z,1012.96
2019-02-17T07:07:49.749Z,1013
2019-02-17T07:08:48.323Z,1013.01
2019-02-17T07:09:46.999Z,1013.02
2019-02-17T07:10:45.830Z,1012.96
2019-02-17T07:11:44.347Z,1013
2019-02-17T07:12:42.997Z,1012.97
2019-02-17T07:13:41.574Z,1012.96
2019-02-17T07:14:40.153Z,1012.92
2019-02-17T07:15:38.724Z,1012.97
2019-02-17T07:16:37.299Z,1012.97
2019-02-17T07:17:36.016Z,1012.98
2019-02-17T07:18:34.613Z,1012.93
2019-02-17T07:19:33.213Z,1012.93
2019-02-17T07:20:31.993Z,1012.96
2019-02-17T07:21:30.624Z,1012.97
2019-02-17T07:24:10.690Z,1012.95
2019-02-17T07:25:09.263Z,1013.06
2019-02-17T07:26:07.971Z,1013.02
2019-02-17T07:27:06.700Z,1013.06
2019-02-17T07:28:05.255Z,1013.05
2019-02-17T07:29:04.183Z,1013.03
2019-02-17T07:30:02.725Z,1013.06
2019-02-17T07:31:01.362Z,1013.04
2019-02-17T07:31:59.936Z,1012.98
2019-02-17T07:32:58.501Z,1013
2019-02-17T07:33:57.111Z,1012.99
2019-02-17T07:34:55.831Z,1012.99
2019-02-17T07:35:54.408Z,1013
2019-02-17T07:36:52.989Z,1012.96
2019-02-17T07:37:51.774Z,1012.99
2019-02-17T07:38:50.312Z,1012.93
2019-02-17T07:39:48.940Z,1012.96
2019-02-17T07:40:47.666Z,1012.91
2019-02-17T07:41:46.273Z,1012.92
2019-02-17T07:42:44.826Z,1012.95
2019-02-17T07:43:43.486Z,1012.93
2019-02-17T07:44:42.217Z,1012.92
2019-02-17T07:45:41.121Z,1012.9
2019-02-17T07:46:39.717Z,1012.88
2019-02-17T07:49:02.208Z,1012.87
2019-02-17T07:50:03.559Z,1012.88
2019-02-17T07:51:02.818Z,1012.87
2019-02-17T07:52:01.378Z,1012.87
2019-02-17T07:53:00.381Z,1012.86
2019-02-17T07:54:01.271Z,1012.78
2019-02-17T07:54:59.884Z,1012.9
2019-02-17T07:55:58.660Z,1012.8
2019-02-17T07:56:58.012Z,1012.85
2019-02-17T07:57:56.585Z,1012.78
2019-02-17T07:58:55.301Z,1012.84
2019-02-17T07:59:54.047Z,1012.77
2019-02-17T08:00:52.818Z,1012.82
2019-02-17T08:01:51.439Z,1012.77
2019-02-17T08:02:49.978Z,1012.77
2019-02-17T08:03:48.658Z,1012.81
2019-02-17T08:04:47.429Z,1012.76
2019-02-17T08:05:46.173Z,1012.8
2019-02-17T08:06:44.855Z,1012.76
2019-02-17T08:07:43.485Z,1012.77
2019-02-17T08:08:42.150Z,1012.75
2019-02-17T08:09:40.674Z,1012.71
2019-02-17T08:10:39.550Z,1012.75
2019-02-17T08:11:38.258Z,1012.76
2019-02-17T08:12:36.933Z,1012.71
2019-02-17T08:13:35.534Z,1012.72
2019-02-17T08:14:34.137Z,1012.73
2019-02-17T08:15:32.713Z,1012.7
2019-02-17T08:16:31.250Z,1012.74
2019-02-17T08:17:29.966Z,1012.64
2019-02-17T08:18:28.601Z,1012.68
2019-02-17T08:19:27.181Z,1012.66
2019-02-17T08:20:25.905Z,1012.68
2019-02-17T08:21:24.546Z,1012.67
2019-02-17T08:22:23.183Z,1012.7
2019-02-17T08:23:21.846Z,1012.68
2019-02-17T08:24:20.387Z,1012.68
2019-02-17T08:25:21.667Z,1012.65
2019-02-17T08:26:17.760Z,1012.65
2019-02-17T08:27:16.289Z,1012.67
2019-02-17T08:28:14.865Z,1012.71
2019-02-17T08:29:14.079Z,1012.62
2019-02-17T08:30:12.657Z,1012.69
2019-02-17T08:31:11.367Z,1012.64
2019-02-17T08:32:09.942Z,1012.69
2019-02-17T08:33:08.462Z,1012.7
2019-02-17T08:34:07.254Z,1012.68
2019-02-17T08:35:05.905Z,1012.68
2019-02-17T08:36:04.499Z,1012.69
2019-02-17T08:37:03.041Z,1012.69
2019-02-17T08:38:03.366Z,1012.69
2019-02-17T08:39:00.364Z,1012.66
2019-02-17T08:40:04.451Z,1012.65
2019-02-17T08:41:03.462Z,1012.66
2019-02-17T08:42:02.353Z,1012.65
2019-02-17T08:43:01.054Z,1012.67
2019-02-17T08:44:00.923Z,1012.62
2019-02-17T08:44:58.600Z,1012.68
2019-02-17T08:45:57.264Z,1012.66
2019-02-17T08:46:55.905Z,1012.64
2019-02-17T08:47:54.527Z,1012.62
2019-02-17T08:48:53.077Z,1012.65
2019-02-17T08:49:51.947Z,1012.68
2019-02-17T08:50:50.496Z,1012.62
2019-02-17T08:51:49.101Z,1012.59
2019-02-17T08:52:48.089Z,1012.58
2019-02-17T08:53:46.429Z,1012.6
2019-02-17T08:54:44.983Z,1012.63
2019-02-17T08:55:43.557Z,1012.58
2019-02-17T08:56:42.289Z,1012.6
2019-02-17T08:57:40.827Z,1012.65
2019-02-17T08:58:39.515Z,1012.63
2019-02-17T08:59:38.082Z,1012.62
2019-02-17T09:00:37.490Z,1012.64
2019-02-17T09:01:36.168Z,1012.6
2019-02-17T09:02:34.770Z,1012.65
2019-02-17T09:03:33.733Z,1012.61
2019-02-17T09:04:32.245Z,1012.6
2019-02-17T09:05:30.876Z,1012.61
2019-02-17T09:06:29.556Z,1012.62
2019-02-17T09:07:28.263Z,1012.61
2019-02-17T09:08:26.796Z,1012.62
2019-02-17T09:09:25.386Z,1012.58
2019-02-17T09:10:24.099Z,1012.63
2019-02-17T09:11:22.649Z,1012.61
2019-02-17T09:12:21.294Z,1012.6
2019-02-17T09:13:19.846Z,1012.62
2019-02-17T09:14:18.349Z,1012.56
2019-02-17T09:15:16.899Z,1012.56
2019-02-17T09:16:15.666Z,1012.63
2019-02-17T09:17:14.339Z,1012.59
2019-02-17T09:18:12.934Z,1012.59
2019-02-17T09:19:11.860Z,1012.58
2019-02-17T09:20:10.414Z,1012.55
2019-02-17T09:21:08.951Z,1012.57
2019-02-17T09:22:08.005Z,1012.53
2019-02-17T09:23:06.688Z,1012.56
2019-02-17T09:24:05.403Z,1012.57
2019-02-17T09:25:04.012Z,1012.57
2019-02-17T09:26:02.610Z,1012.58
2019-02-17T09:27:01.176Z,1012.57
2019-02-17T09:28:00.142Z,1012.55
2019-02-17T09:28:58.704Z,1012.57
2019-02-17T09:29:57.478Z,1012.53
2019-02-17T09:30:56.051Z,1012.57
2019-02-17T09:31:54.621Z,1012.6
2019-02-17T09:32:53.132Z,1012.58
2019-02-17T09:33:51.763Z,1012.6
2019-02-17T09:34:50.412Z,1012.61
2019-02-17T09:35:49.030Z,1012.6
2019-02-17T09:36:47.721Z,1012.59
2019-02-17T09:37:46.570Z,1012.6
2019-02-17T09:38:45.189Z,1012.55
2019-02-17T09:39:43.788Z,1012.56
2019-02-17T09:40:42.392Z,1012.59
2019-02-17T09:41:40.986Z,1012.63
2019-02-17T09:42:39.738Z,1012.56
2019-02-17T09:43:38.410Z,1012.56
2019-02-17T09:44:37.004Z,1012.58
2019-02-17T09:47:17.317Z,1012.61
2019-02-17T09:48:15.837Z,1012.61
2019-02-17T09:49:14.381Z,1012.63
2019-02-17T09:50:13.043Z,1012.59
2019-02-17T09:51:11.783Z,1012.59
2019-02-17T09:52:10.330Z,1012.6
2019-02-17T09:53:08.970Z,1012.61
2019-02-17T09:55:32.119Z,1012.58
2019-02-17T09:56:30.754Z,1012.58
2019-02-17T09:57:29.332Z,1012.59
2019-02-17T09:58:28.203Z,1012.57
2019-02-17T09:59:27.658Z,1012.57
2019-02-17T10:00:26.427Z,1012.6
2019-02-17T10:24:20.657Z,1012.47
2019-02-17T10:25:20.047Z,1012.49
2019-02-17T10:26:18.784Z,1012.48
2019-02-17T10:27:17.620Z,1012.51
2019-02-17T10:28:16.214Z,1012.48
2019-02-17T10:29:14.770Z,1012.43
2019-02-17T10:30:13.618Z,1012.47
2019-02-17T10:31:12.513Z,1012.48
2019-02-17T10:32:11.105Z,1012.53
2019-02-17T10:33:10.031Z,1012.52
2019-02-17T10:34:08.784Z,1012.53
2019-02-17T10:35:07.653Z,1012.48
2019-02-17T10:36:06.524Z,1012.52
2019-02-17T10:37:05.795Z,1012.5
2019-02-17T10:38:04.218Z,1012.47
2019-02-17T10:39:02.837Z,1012.47
2019-02-17T10:41:43.091Z,1012.39
2019-02-17T10:42:42.294Z,1012.42
2019-02-17T10:43:40.901Z,1012.41
2019-02-17T10:44:39.906Z,1012.36
2019-02-17T10:45:38.502Z,1012.39
2019-02-17T10:46:37.197Z,1012.4
2019-02-17T10:47:36.315Z,1012.36
2019-02-17T10:48:35.004Z,1012.35
2019-02-17T10:49:33.806Z,1012.35
2019-02-17T10:50:32.434Z,1012.39
2019-02-17T10:51:30.973Z,1012.38
2019-02-17T10:52:29.683Z,1012.39
2019-02-17T10:53:28.534Z,1012.35
2019-02-17T10:54:27.263Z,1012.31
2019-02-17T10:57:07.793Z,1012.3
2019-02-17T10:58:06.592Z,1012.25
2019-02-17T11:00:46.979Z,1012.23
2019-02-17T11:01:45.656Z,1012.22
2019-02-17T11:02:46.936Z,1012.18
2019-02-17T11:29:02.085Z,1011.71
2019-02-17T11:31:42.378Z,1011.69
2019-02-17T11:32:41.004Z,1011.62
2019-02-17T11:33:39.664Z,1011.64
2019-02-17T11:34:38.200Z,1011.6
2019-02-17T11:37:18.383Z,1011.61
2019-02-17T11:39:34.403Z,1011.63
2019-02-17T11:40:33.020Z,1011.6
2019-02-17T11:41:31.691Z,1011.54
2019-02-17T11:42:30.258Z,1011.56
2019-02-17T11:44:53.243Z,1011.52
2019-02-17T11:45:52.111Z,1011.53
2019-02-17T11:46:50.698Z,1011.53
2019-02-17T11:47:49.378Z,1011.51
2019-02-17T11:48:48.077Z,1011.49
2019-02-17T11:49:46.670Z,1011.48
2019-02-17T11:50:45.211Z,1011.52
2019-02-17T11:52:42.568Z,1011.42
2019-02-17T11:53:41.190Z,1011.38
2019-02-17T11:54:39.746Z,1011.42
2019-02-17T11:55:38.469Z,1011.38
2019-02-17T11:56:36.879Z,1011.36
2019-02-17T11:57:35.397Z,1011.34
2019-02-17T11:58:34.011Z,1011.36
2019-02-17T11:59:32.599Z,1011.35
2019-02-17T12:00:31.362Z,1011.29
2019-02-17T12:01:30.155Z,1011.32
2019-02-17T12:02:28.706Z,1011.33
2019-02-17T12:03:27.329Z,1011.31
2019-02-17T12:04:25.967Z,1011.3
2019-02-17T12:07:06.415Z,1011.3
2019-02-17T12:08:04.995Z,1011.26
2019-02-17T12:09:03.864Z,1011.25
2019-02-17T12:10:02.446Z,1011.18
2019-02-17T12:15:07.109Z,1011.09
2019-02-17T12:16:04.450Z,1011.05
2019-02-17T12:20:10.020Z,1010.98
2019-02-17T12:22:11.057Z,1010.93
2019-02-17T12:23:10.077Z,1010.88
2019-02-17T12:24:08.781Z,1010.86
2019-02-17T12:25:07.463Z,1010.86
2019-02-17T12:26:06.143Z,1010.85
2019-02-17T12:27:04.716Z,1010.84
2019-02-17T12:28:03.299Z,1010.8
2019-02-17T12:29:02.076Z,1010.79
2019-02-17T12:30:00.866Z,1010.8
2019-02-17T12:30:59.584Z,1010.77
2019-02-17T12:31:58.162Z,1010.8
2019-02-17T12:34:24.598Z,1010.76
2019-02-17T12:35:23.149Z,1010.72
2019-02-17T12:38:03.357Z,1010.69
2019-02-17T12:39:02.105Z,1010.68
2019-02-17T12:40:00.830Z,1010.66
2019-02-17T12:40:59.410Z,1010.62
2019-02-17T12:41:57.981Z,1010.64
2019-02-17T12:42:56.543Z,1010.62
2019-02-17T12:43:56.015Z,1010.6
2019-02-17T12:44:56.953Z,1010.58
2019-02-17T12:45:53.182Z,1010.62
2019-02-17T12:46:51.979Z,1010.61
2019-02-17T12:47:57.403Z,1010.66
2019-02-17T12:48:49.095Z,1010.59
2019-02-17T12:49:49.853Z,1010.55
2019-02-17T12:53:13.320Z,1010.54
2019-02-17T12:54:11.936Z,1010.49
2019-02-17T12:55:10.639Z,1010.53
2019-02-17T12:56:09.311Z,1010.49
2019-02-17T12:57:08.071Z,1010.48
2019-02-17T12:58:06.679Z,1010.44
2019-02-17T12:59:05.333Z,1010.41
2019-02-17T13:00:03.973Z,1010.44
2019-02-17T13:01:02.590Z,1010.41
2019-02-17T13:02:01.451Z,1010.41
2019-02-17T13:03:00.060Z,1010.43
2019-02-17T13:05:40.297Z,1010.39
2019-02-17T13:13:23.654Z,1010.22
2019-02-17T13:14:22.258Z,1010.26
2019-02-17T13:15:20.778Z,1010.25
2019-02-17T13:16:19.394Z,1010.24
2019-02-17T13:17:18.099Z,1010.24
2019-02-17T13:22:38.766Z,1010.22
2019-02-17T13:23:37.554Z,1010.15
2019-02-17T13:24:36.208Z,1010.21
2019-02-17T13:29:14.663Z,1010.11
2019-02-17T13:30:13.562Z,1010.11
2019-02-17T13:31:12.254Z,1010.15
2019-02-17T13:32:10.907Z,1010.09